Terminal Aerodrome Forecast
Issued by NWS Grand Junction, CO

Home | Current Version | Previous Version | Text Only | Print | Product List | Glossary On
Versions: 1 2 3 4 5 6 7 8 9 10 11 12 13 14 15 16 17 18 19 20 21 22 23 24 25 26 27 28
000
FTUS45 KGJT 112333
TAFGJT
TAF
KGJT 112333Z 1200/1224 VRB10KT P6SM -TSRA SCT080CB SCT150
      TEMPO 1200/1201 VRB20G30KT 3SM TSRA BKN060CB
     FM120400 10006KT P6SM SCT100 BKN250
     FM120900 10008KT P6SM SCT250
     FM121900 29007KT P6SM SCT090 SCT150=

USA.gov is the U.S. government's official web portal to all federal, state and local government web resources and services.